createdAt,value
2017-10-24T00:00:51.508Z,8.40
2017-10-24T00:05:52.578Z,8.40
2017-10-24T00:10:53.686Z,8.40
2017-10-24T00:15:54.744Z,8.30
2017-10-24T00:20:55.815Z,8.30
2017-10-24T00:25:56.890Z,8.30
2017-10-24T00:36:34.947Z,8.40
2017-10-24T00:41:36.016Z,8.40
2017-10-24T00:46:37.073Z,8.40
2017-10-24T00:51:38.158Z,8.40
2017-10-24T00:56:40.141Z,8.50
2017-10-24T01:07:18.402Z,8.60
2017-10-24T01:12:20.235Z,8.50
2017-10-24T01:17:21.341Z,8.50
2017-10-24T01:22:23.152Z,8.50
2017-10-24T01:27:24.233Z,8.50
2017-10-24T01:32:32.353Z,8.50
2017-10-24T01:37:34.166Z,8.60
2017-10-24T01:42:35.262Z,8.60
2017-10-24T01:47:36.332Z,8.60
2017-10-24T01:52:37.420Z,8.60
2017-10-24T01:57:38.697Z,8.60
2017-10-24T02:08:25.791Z,8.60
2017-10-24T02:13:27.593Z,8.70
2017-10-24T02:18:28.678Z,8.60
2017-10-24T02:23:29.764Z,8.70
2017-10-24T02:28:36.814Z,8.60
2017-10-24T02:33:37.909Z,8.70
2017-10-24T02:38:39.011Z,8.70
2017-10-24T02:43:40.083Z,8.80
2017-10-24T02:48:41.153Z,8.70
2017-10-24T02:53:42.231Z,8.70
2017-10-24T02:58:43.308Z,8.70
2017-10-24T03:03:44.381Z,8.60
2017-10-24T03:14:24.589Z,8.50
2017-10-24T03:19:26.382Z,8.50
2017-10-24T03:24:28.219Z,8.40
2017-10-24T03:29:29.310Z,8.40
2017-10-24T03:34:31.167Z,8.30
2017-10-24T03:39:32.259Z,8.30
2017-10-24T03:44:33.327Z,8.20
2017-10-24T03:49:34.408Z,8.20
2017-10-24T03:54:35.498Z,8.20
2017-10-24T03:59:36.564Z,8.40
2017-10-24T04:04:38.427Z,8.40
2017-10-24T04:09:57.340Z,8.40
2017-10-24T04:14:59.198Z,8.40
2017-10-24T04:20:01.024Z,8.40
2017-10-24T04:25:02.117Z,8.30
2017-10-24T04:30:03.200Z,8.30
2017-10-24T04:35:05.022Z,8.30
2017-10-24T04:40:06.076Z,8.20
2017-10-24T04:45:07.122Z,8.30
2017-10-24T04:50:08.196Z,8.20
2017-10-24T04:55:09.277Z,8.20
2017-10-24T05:00:10.336Z,8.10
2017-10-24T05:05:11.402Z,8.00
2017-10-24T05:10:12.482Z,8.00
2017-10-24T05:15:14.308Z,7.90
2017-10-24T05:20:15.424Z,7.90
2017-10-24T05:41:41.809Z,7.80
2017-10-24T05:46:42.854Z,7.80
2017-10-24T05:51:43.944Z,7.70
2017-10-24T05:56:45.009Z,7.70
2017-10-24T06:01:46.053Z,7.60
2017-10-24T06:06:47.122Z,7.50
2017-10-24T06:11:48.195Z,7.50
2017-10-24T06:16:49.273Z,7.50
2017-10-24T06:21:50.359Z,7.40
2017-10-24T06:27:04.935Z,7.20
2017-10-24T06:32:05.992Z,7.20
2017-10-24T06:42:34.980Z,7.40
2017-10-24T06:47:36.029Z,7.40
2017-10-24T06:58:12.852Z,7.50
2017-10-24T07:14:28.397Z,8.60
2017-10-24T07:19:29.454Z,8.80
2017-10-24T07:24:34.122Z,8.80
2017-10-24T07:29:35.190Z,9.00
2017-10-24T07:34:47.797Z,9.30
2017-10-24T07:39:48.859Z,9.50
2017-10-24T07:44:49.954Z,9.60
2017-10-24T07:49:51.071Z,9.80
2017-10-24T07:54:52.122Z,10.30
2017-10-24T08:05:36.919Z,11.30
2017-10-24T08:16:23.761Z,12.80
2017-10-24T08:32:26.070Z,14.10
2017-10-24T08:48:37.286Z,13.70
2017-10-24T08:53:38.340Z,13.40
2017-10-24T08:58:39.420Z,13.50
2017-10-24T09:04:05.885Z,14.00
2017-10-24T09:25:23.141Z,14.30
2017-10-24T09:30:44.665Z,15.30
2017-10-24T09:35:46.487Z,16.30
2017-10-24T09:40:47.559Z,16.20
2017-10-24T09:45:48.617Z,15.60
2017-10-24T09:50:50.525Z,15.30
2017-10-24T09:55:52.353Z,16.60
2017-10-24T10:00:54.453Z,16.60
2017-10-24T10:06:10.474Z,16.30
2017-10-24T10:11:11.546Z,15.70
2017-10-24T10:16:18.938Z,15.40
2017-10-24T10:21:22.033Z,16.50
2017-10-24T10:26:26.698Z,16.50
2017-10-24T10:31:31.436Z,16.20
2017-10-24T10:36:37.411Z,16.60
2017-10-24T10:41:38.497Z,16.40
2017-10-24T10:46:40.312Z,16.20
2017-10-24T10:51:47.328Z,16.20
2017-10-24T10:56:52.014Z,16.60
2017-10-24T11:01:54.820Z,16.80
2017-10-24T11:06:59.533Z,16.80
2017-10-24T11:12:08.313Z,17.00
2017-10-24T11:17:17.997Z,17.40
2017-10-24T11:22:19.081Z,17.50
2017-10-24T11:27:20.157Z,17.60
2017-10-24T11:32:21.951Z,17.20
2017-10-24T11:37:23.761Z,16.40
2017-10-24T11:42:24.825Z,16.40
2017-10-24T11:47:25.904Z,15.60
2017-10-24T11:52:27.963Z,15.00
2017-10-24T11:57:29.083Z,14.90
2017-10-24T12:02:34.559Z,15.00
2017-10-24T12:07:42.272Z,14.90
2017-10-24T12:12:43.354Z,15.10
2017-10-24T12:17:44.449Z,15.10
2017-10-24T12:22:49.038Z,15.30
2017-10-24T12:27:50.085Z,14.80
2017-10-24T12:32:51.161Z,14.30
2017-10-24T12:37:52.250Z,14.00
2017-10-24T12:42:53.325Z,14.00
2017-10-24T12:47:54.408Z,14.10
2017-10-24T12:52:56.222Z,14.00
2017-10-24T12:58:01.365Z,14.00
2017-10-24T13:03:05.658Z,14.20
2017-10-24T13:08:14.285Z,14.00
2017-10-24T13:13:15.360Z,14.00
2017-10-24T13:18:24.125Z,13.20
2017-10-24T13:23:25.210Z,13.10
2017-10-24T13:28:26.273Z,13.10
2017-10-24T13:33:33.743Z,13.50
2017-10-24T13:38:38.694Z,13.70
2017-10-24T13:43:40.750Z,14.00
2017-10-24T13:48:42.553Z,14.10
2017-10-24T13:53:43.600Z,14.10
2017-10-24T13:58:44.669Z,14.10
2017-10-24T14:03:45.738Z,14.00
2017-10-24T14:08:52.992Z,14.20
2017-10-24T14:13:54.796Z,14.20
2017-10-24T14:18:55.845Z,14.20
2017-10-24T14:23:57.678Z,14.80
2017-10-24T14:28:58.770Z,14.80
2017-10-24T14:33:59.869Z,14.70
2017-10-24T14:39:00.958Z,14.40
2017-10-24T14:44:05.162Z,14.20
2017-10-24T14:49:06.238Z,14.10
2017-10-24T14:54:07.312Z,13.90
2017-10-24T14:59:08.382Z,13.80
2017-10-24T15:04:09.465Z,13.70
2017-10-24T15:09:11.272Z,13.40
2017-10-24T15:14:12.344Z,13.40
2017-10-24T15:19:13.465Z,13.20
2017-10-24T15:24:15.289Z,13.20
2017-10-24T15:29:24.366Z,13.20
2017-10-24T15:34:28.215Z,13.00
2017-10-24T15:39:35.929Z,13.00
2017-10-24T15:44:37.047Z,12.90
2017-10-24T15:49:38.139Z,12.80
2017-10-24T15:54:39.203Z,12.80
2017-10-24T15:59:40.266Z,12.70
2017-10-24T16:04:41.321Z,12.60
2017-10-24T16:09:42.457Z,12.60
2017-10-24T16:14:44.293Z,12.40
2017-10-24T16:19:45.416Z,12.40
2017-10-24T16:24:46.500Z,12.40
2017-10-24T16:29:47.557Z,12.30
2017-10-24T16:34:48.606Z,12.30
2017-10-24T16:39:49.665Z,12.20
2017-10-24T16:44:50.773Z,12.20
2017-10-24T16:49:51.819Z,12.20
2017-10-24T16:54:52.909Z,12.20
2017-10-24T16:59:54.721Z,12.20
2017-10-24T17:04:55.805Z,12.10
2017-10-24T17:09:56.884Z,12.10
2017-10-24T17:14:58.722Z,12.10
2017-10-24T17:19:59.889Z,12.10
2017-10-24T17:25:01.173Z,12.10
2017-10-24T17:30:03.289Z,12.10
2017-10-24T17:35:05.829Z,12.00
2017-10-24T17:40:07.364Z,11.90
2017-10-24T17:45:09.622Z,11.80
2017-10-24T17:50:11.443Z,11.70
2017-10-24T17:55:12.504Z,11.70
2017-10-24T18:00:13.569Z,11.70
2017-10-24T18:05:14.661Z,11.60
2017-10-24T18:10:15.741Z,11.60
2017-10-24T18:15:17.541Z,11.50
2017-10-24T18:20:18.633Z,11.50
2017-10-24T18:25:19.710Z,11.50
2017-10-24T18:30:20.775Z,11.50
2017-10-24T18:35:21.876Z,11.40
2017-10-24T18:40:22.945Z,11.50
2017-10-24T18:45:24.085Z,11.30
2017-10-24T18:50:25.157Z,11.40
2017-10-24T18:55:26.243Z,11.30
2017-10-24T19:00:27.325Z,11.30
2017-10-24T19:05:28.413Z,11.30
2017-10-24T19:10:29.485Z,11.40
2017-10-24T19:15:30.558Z,11.30
2017-10-24T19:20:31.632Z,11.20
2017-10-24T19:25:32.708Z,11.20
2017-10-24T19:30:33.769Z,11.10
2017-10-24T19:35:34.841Z,11.10
2017-10-24T19:40:36.667Z,11.00
2017-10-24T19:45:37.729Z,11.00
2017-10-24T19:50:38.809Z,11.00
2017-10-24T19:55:39.872Z,11.00
2017-10-24T20:00:40.941Z,10.90
2017-10-24T20:05:41.997Z,10.90
2017-10-24T20:10:43.073Z,10.90
2017-10-24T20:15:44.886Z,10.70
2017-10-24T20:20:45.975Z,10.70
2017-10-24T20:25:47.051Z,10.70
2017-10-24T20:30:48.120Z,10.60
2017-10-24T20:35:49.904Z,10.50
2017-10-24T20:40:50.988Z,10.50
2017-10-24T20:45:52.058Z,10.50
2017-10-24T20:50:53.150Z,10.50
2017-10-24T20:55:54.217Z,10.50
2017-10-24T21:00:55.266Z,10.60
2017-10-24T21:05:56.368Z,10.50
2017-10-24T21:10:57.450Z,10.50
2017-10-24T21:15:58.515Z,10.40
2017-10-24T21:20:59.594Z,10.40
2017-10-24T21:26:00.693Z,10.40
2017-10-24T21:31:01.832Z,10.50
2017-10-24T21:36:02.894Z,10.50
2017-10-24T21:41:03.976Z,10.50
2017-10-24T21:46:05.029Z,10.40
2017-10-24T21:51:06.107Z,10.40
2017-10-24T21:56:07.183Z,10.40
2017-10-24T22:01:08.252Z,10.40
2017-10-24T22:06:09.626Z,10.40
2017-10-24T22:11:10.691Z,10.40
2017-10-24T22:16:11.751Z,10.40
2017-10-24T22:21:12.822Z,10.40
2017-10-24T22:26:13.909Z,10.50
2017-10-24T22:31:14.966Z,10.40
2017-10-24T22:36:16.030Z,10.40
2017-10-24T22:41:17.085Z,10.40
2017-10-24T22:46:18.157Z,10.40
2017-10-24T22:51:19.223Z,10.30
2017-10-24T22:56:20.286Z,10.20
2017-10-24T23:01:21.350Z,10.20
2017-10-24T23:06:22.429Z,10.20
2017-10-24T23:11:23.494Z,10.20
2017-10-24T23:16:24.565Z,10.20
2017-10-24T23:21:25.616Z,10.10
2017-10-24T23:26:26.683Z,10.10
2017-10-24T23:31:30.789Z,10.10
2017-10-24T23:36:31.853Z,10.10
2017-10-24T23:41:32.909Z,10.10
2017-10-24T23:46:33.954Z,9.90
2017-10-24T23:51:35.021Z,9.90
2017-10-24T23:56:36.081Z,9.80
